sensor_id;sensor_type;location;lat;lon;timestamp;pressure;altitude;pressure_sealevel;temperature;humidity
20909;BME280;10614;53.198;6.570;2024-03-29T00:01:03;99053.66;;;8.16;100.00
20909;BME280;10614;53.198;6.570;2024-03-29T00:03:04;99044.00;;;8.17;100.00
20909;BME280;10614;53.198;6.570;2024-03-29T00:05:06;99059.72;;;8.17;100.00
20909;BME280;10614;53.198;6.570;2024-03-29T00:07:08;99052.88;;;8.14;100.00
20909;BME280;10614;53.198;6.570;2024-03-29T00:09:08;99059.16;;;8.12;100.00
20909;BME280;10614;53.198;6.570;2024-03-29T00:11:09;99061.19;;;8.07;100.00
20909;BME280;10614;53.198;6.570;2024-03-29T00:13:10;99060.56;;;8.03;100.00
20909;BME280;10614;53.198;6.570;2024-03-29T00:15:11;99035.16;;;7.89;100.00
20909;BME280;10614;53.198;6.570;2024-03-29T00:17:13;99054.06;;;7.94;100.00
20909;BME280;10614;53.198;6.570;2024-03-29T00:19:14;99039.91;;;7.82;100.00
20909;BME280;10614;53.198;6.570;2024-03-29T00:21:15;99043.53;;;7.80;100.00
20909;BME280;10614;53.198;6.570;2024-03-29T00:23:16;99054.59;;;7.85;100.00
20909;BME280;10614;53.198;6.570;2024-03-29T00:25:17;99051.97;;;7.85;100.00
20909;BME280;10614;53.198;6.570;2024-03-29T00:27:18;99060.84;;;7.82;100.00
20909;BME280;10614;53.198;6.570;2024-03-29T00:29:19;99047.19;;;7.77;100.00
20909;BME280;10614;53.198;6.570;2024-03-29T00:31:20;99063.63;;;7.79;100.00
20909;BME280;10614;53.198;6.570;2024-03-29T00:33:22;99078.50;;;7.79;100.00
20909;BME280;10614;53.198;6.570;2024-03-29T00:35:23;99070.66;;;7.79;100.00
20909;BME280;10614;53.198;6.570;2024-03-29T00:37:24;99049.63;;;7.65;100.00
20909;BME280;10614;53.198;6.570;2024-03-29T00:39:25;99073.25;;;7.79;100.00
20909;BME280;10614;53.198;6.570;2024-03-29T00:41:25;99081.22;;;7.77;100.00
20909;BME280;10614;53.198;6.570;2024-03-29T00:43:26;99076.00;;;7.77;100.00
20909;BME280;10614;53.198;6.570;2024-03-29T00:45:27;99072.09;;;7.69;100.00
20909;BME280;10614;53.198;6.570;2024-03-29T00:47:28;99080.63;;;7.72;100.00
20909;BME280;10614;53.198;6.570;2024-03-29T00:49:30;99083.41;;;7.69;100.00
20909;BME280;10614;53.198;6.570;2024-03-29T00:51:31;99073.88;;;7.68;100.00
20909;BME280;10614;53.198;6.570;2024-03-29T00:53:32;99075.81;;;7.65;100.00
20909;BME280;10614;53.198;6.570;2024-03-29T00:55:33;99075.75;;;7.66;100.00
20909;BME280;10614;53.198;6.570;2024-03-29T00:57:33;99081.13;;;7.63;100.00
20909;BME280;10614;53.198;6.570;2024-03-29T00:59:34;99067.66;;;7.55;100.00
20909;BME280;10614;53.198;6.570;2024-03-29T01:01:35;99078.50;;;7.63;100.00
20909;BME280;10614;53.198;6.570;2024-03-29T01:03:36;99073.28;;;7.63;100.00
20909;BME280;10614;53.198;6.570;2024-03-29T01:05:38;99075.06;;;7.63;100.00
20909;BME280;10614;53.198;6.570;2024-03-29T01:07:40;99043.00;;;7.43;100.00
20909;BME280;10614;53.198;6.570;2024-03-29T01:09:41;99080.16;;;7.66;100.00
20909;BME280;10614;53.198;6.570;2024-03-29T01:11:41;99063.59;;;7.49;100.00
20909;BME280;10614;53.198;6.570;2024-03-29T01:13:42;99053.13;;;7.49;100.00
20909;BME280;10614;53.198;6.570;2024-03-29T01:15:43;99077.53;;;7.66;100.00
20909;BME280;10614;53.198;6.570;2024-03-29T01:17:44;99077.41;;;7.67;100.00
20909;BME280;10614;53.198;6.570;2024-03-29T01:19:45;99077.28;;;7.70;100.00
20909;BME280;10614;53.198;6.570;2024-03-29T01:21:48;99074.53;;;7.72;100.00
20909;BME280;10614;53.198;6.570;2024-03-29T01:23:48;99064.59;;;7.63;100.00
20909;BME280;10614;53.198;6.570;2024-03-29T01:25:49;99065.59;;;7.76;100.00
20909;BME280;10614;53.198;6.570;2024-03-29T01:27:50;99079.72;;;7.73;100.00
20909;BME280;10614;53.198;6.570;2024-03-29T01:29:51;99073.63;;;7.73;100.00
20909;BME280;10614;53.198;6.570;2024-03-29T01:31:52;99069.41;;;7.70;100.00
20909;BME280;10614;53.198;6.570;2024-03-29T01:33:53;99068.66;;;7.68;100.00
20909;BME280;10614;53.198;6.570;2024-03-29T01:35:54;99076.41;;;7.70;100.00
20909;BME280;10614;53.198;6.570;2024-03-29T01:37:57;99079.88;;;7.70;100.00
20909;BME280;10614;53.198;6.570;2024-03-29T01:39:58;99084.38;;;7.68;100.00
20909;BME280;10614;53.198;6.570;2024-03-29T01:41:58;99084.44;;;7.67;100.00
20909;BME280;10614;53.198;6.570;2024-03-29T01:43:59;99089.69;;;7.67;100.00
20909;BME280;10614;53.198;6.570;2024-03-29T01:46:01;99087.25;;;7.64;100.00
20909;BME280;10614;53.198;6.570;2024-03-29T01:48:03;99058.53;;;7.46;100.00
20909;BME280;10614;53.198;6.570;2024-03-29T01:50:06;99077.94;;;7.58;100.00
20909;BME280;10614;53.198;6.570;2024-03-29T01:52:07;99092.63;;;7.60;100.00
20909;BME280;10614;53.198;6.570;2024-03-29T01:54:11;99092.72;;;7.59;100.00
20909;BME280;10614;53.198;6.570;2024-03-29T01:56:13;99095.25;;;7.60;100.00
20909;BME280;10614;53.198;6.570;2024-03-29T01:58:18;99084.69;;;7.62;100.00
20909;BME280;10614;53.198;6.570;2024-03-29T02:00:21;99079.47;;;7.62;100.00
20909;BME280;10614;53.198;6.570;2024-03-29T02:02:23;99081.25;;;7.61;100.00
20909;BME280;10614;53.198;6.570;2024-03-29T02:04:25;99083.88;;;7.61;100.00
20909;BME280;10614;53.198;6.570;2024-03-29T02:06:27;99073.38;;;7.61;100.00
20909;BME280;10614;53.198;6.570;2024-03-29T02:08:29;99072.69;;;7.58;100.00
20909;BME280;10614;53.198;6.570;2024-03-29T02:10:32;99048.47;;;7.54;100.00
20909;BME280;10614;53.198;6.570;2024-03-29T02:12:35;99047.22;;;7.46;100.00
20909;BME280;10614;53.198;6.570;2024-03-29T02:14:37;99068.31;;;7.58;100.00
20909;BME280;10614;53.198;6.570;2024-03-29T02:16:40;99069.16;;;7.59;100.00
20909;BME280;10614;53.198;6.570;2024-03-29T02:18:42;99055.91;;;7.46;100.00
20909;BME280;10614;53.198;6.570;2024-03-29T02:20:43;99057.00;;;7.58;100.00
20909;BME280;10614;53.198;6.570;2024-03-29T02:22:52;99056.34;;;7.54;100.00
20909;BME280;10614;53.198;6.570;2024-03-29T02:24:56;99059.97;;;7.52;100.00
20909;BME280;10614;53.198;6.570;2024-03-29T02:26:58;99039.78;;;7.38;100.00
20909;BME280;10614;53.198;6.570;2024-03-29T02:28:59;99059.47;;;7.45;100.00
20909;BME280;10614;53.198;6.570;2024-03-29T02:31:01;99046.69;;;7.39;100.00
20909;BME280;10614;53.198;6.570;2024-03-29T02:33:03;99040.63;;;7.38;100.00
20909;BME280;10614;53.198;6.570;2024-03-29T02:35:05;99047.53;;;7.39;nan
20909;BME280;10614;53.198;6.570;2024-03-29T02:37:07;99056.16;;;7.42;nan
20909;BME280;10614;53.198;6.570;2024-03-29T02:39:09;99057.94;;;7.41;nan
20909;BME280;10614;53.198;6.570;2024-03-29T02:41:12;99062.34;;;7.40;nan
20909;BME280;10614;53.198;6.570;2024-03-29T02:43:13;99070.19;;;7.40;nan
20909;BME280;10614;53.198;6.570;2024-03-29T02:45:15;99059.91;;;7.37;nan
20909;BME280;10614;53.198;6.570;2024-03-29T02:47:17;99060.72;;;7.38;nan
20909;BME280;10614;53.198;6.570;2024-03-29T02:49:18;99048.75;;;7.34;nan
20909;BME280;10614;53.198;6.570;2024-03-29T02:51:20;99043.75;;;7.29;nan
20909;BME280;10614;53.198;6.570;2024-03-29T02:53:21;99039.47;;;7.28;nan
20909;BME280;10614;53.198;6.570;2024-03-29T02:55:23;99058.44;;;7.32;nan
20909;BME280;10614;53.198;6.570;2024-03-29T02:57:25;99070.44;;;7.36;nan
20909;BME280;10614;53.198;6.570;2024-03-29T02:59:27;99049.94;;;7.28;nan
20909;BME280;10614;53.198;6.570;2024-03-29T03:01:27;99063.50;;;7.35;nan
20909;BME280;10614;53.198;6.570;2024-03-29T03:03:29;99032.63;;;7.10;nan
20909;BME280;10614;53.198;6.570;2024-03-29T03:05:30;99078.78;;;7.27;nan
20909;BME280;10614;53.198;6.570;2024-03-29T03:07:31;99071.97;;;7.24;nan
20909;BME280;10614;53.198;6.570;2024-03-29T03:09:50;99070.50;;;7.18;nan
20909;BME280;10614;53.198;6.570;2024-03-29T03:12:09;99069.66;;;7.18;nan
20909;BME280;10614;53.198;6.570;2024-03-29T03:14:12;99058.53;;;7.14;nan
20909;BME280;10614;53.198;6.570;2024-03-29T03:16:13;99051.31;;;7.02;nan
20909;BME280;10614;53.198;6.570;2024-03-29T03:18:15;99076.91;;;7.13;nan
20909;BME280;10614;53.198;6.570;2024-03-29T03:20:16;99067.41;;;7.12;nan
20909;BME280;10614;53.198;6.570;2024-03-29T03:22:18;99067.47;;;7.10;nan
20909;BME280;10614;53.198;6.570;2024-03-29T03:24:19;99084.84;;;7.11;nan
20909;BME280;10614;53.198;6.570;2024-03-29T03:26:21;99085.78;;;7.10;nan
20909;BME280;10614;53.198;6.570;2024-03-29T03:28:22;99096.25;;;7.10;nan
20909;BME280;10614;53.198;6.570;2024-03-29T03:30:26;99081.63;;;7.06;nan
20909;BME280;10614;53.198;6.570;2024-03-29T03:32:26;99097.09;;;7.11;nan
20909;BME280;10614;53.198;6.570;2024-03-29T03:34:27;99105.78;;;7.11;nan
20909;BME280;10614;53.198;6.570;2024-03-29T03:36:29;99109.25;;;7.12;nan
20909;BME280;10614;53.198;6.570;2024-03-29T03:38:30;99098.69;;;7.13;nan
20909;BME280;10614;53.198;6.570;2024-03-29T03:40:31;99088.22;;;7.13;nan
20909;BME280;10614;53.198;6.570;2024-03-29T03:42:33;99088.81;;;7.18;nan
20909;BME280;10614;53.198;6.570;2024-03-29T03:44:34;99088.69;;;7.22;nan
20909;BME280;10614;53.198;6.570;2024-03-29T03:46:37;99088.56;;;7.23;nan
20909;BME280;10614;53.198;6.570;2024-03-29T03:48:38;99081.47;;;7.25;nan
20909;BME280;10614;53.198;6.570;2024-03-29T03:50:39;99061.16;;;7.14;nan
20909;BME280;10614;53.198;6.570;2024-03-29T03:52:41;99075.34;;;7.26;nan
20909;BME280;10614;53.198;6.570;2024-03-29T03:54:43;99075.41;;;7.25;nan
20909;BME280;10614;53.198;6.570;2024-03-29T03:56:44;99076.59;;;7.19;nan
20909;BME280;10614;53.198;6.570;2024-03-29T03:58:45;99089.44;;;7.24;nan
20909;BME280;10614;53.198;6.570;2024-03-29T04:00:46;99098.97;;;7.25;nan
20909;BME280;10614;53.198;6.570;2024-03-29T04:02:50;99107.75;;;7.24;nan
20909;BME280;10614;53.198;6.570;2024-03-29T04:04:51;99109.50;;;7.23;nan
20909;BME280;10614;53.198;6.570;2024-03-29T04:06:52;99104.53;;;7.18;nan
20909;BME280;10614;53.198;6.570;2024-03-29T04:08:53;99122.69;;;7.22;nan
20909;BME280;10614;53.198;6.570;2024-03-29T04:10:55;99114.00;;;7.21;nan
20909;BME280;10614;53.198;6.570;2024-03-29T04:12:56;99109.69;;;7.20;nan
20909;BME280;10614;53.198;6.570;2024-03-29T04:14:57;99110.63;;;7.19;nan
20909;BME280;10614;53.198;6.570;2024-03-29T04:16:59;99109.69;;;7.20;nan
20909;BME280;10614;53.198;6.570;2024-03-29T04:19:01;99107.81;;;7.22;nan
20909;BME280;10614;53.198;6.570;2024-03-29T04:21:03;99105.88;;;7.26;nan
20909;BME280;10614;53.198;6.570;2024-03-29T04:23:05;99077.94;;;7.10;nan
20909;BME280;10614;53.198;6.570;2024-03-29T04:25:07;99080.31;;;7.15;nan
20909;BME280;10614;53.198;6.570;2024-03-29T04:27:08;99101.34;;;7.29;nan
20909;BME280;10614;53.198;6.570;2024-03-29T04:29:10;99110.03;;;7.30;nan
20909;BME280;10614;53.198;6.570;2024-03-29T04:31:11;99089.69;;;7.19;nan
20909;BME280;10614;53.198;6.570;2024-03-29T04:33:13;99096.94;;;7.30;nan
20909;BME280;10614;53.198;6.570;2024-03-29T04:35:15;99089.78;;;7.33;nan
20909;BME280;10614;53.198;6.570;2024-03-29T04:37:17;99100.16;;;7.35;nan
20909;BME280;10614;53.198;6.570;2024-03-29T04:39:19;99097.53;;;7.35;nan
20909;BME280;10614;53.198;6.570;2024-03-29T04:41:19;99097.44;;;7.36;nan
20909;BME280;10614;53.198;6.570;2024-03-29T04:43:23;99098.47;;;7.34;nan
20909;BME280;10614;53.198;6.570;2024-03-29T04:45:23;99097.19;;;7.41;nan
20909;BME280;10614;53.198;6.570;2024-03-29T04:47:26;99103.28;;;7.42;nan
20909;BME280;10614;53.198;6.570;2024-03-29T04:49:28;99071.13;;;7.24;nan
20909;BME280;10614;53.198;6.570;2024-03-29T04:51:35;99107.50;;;7.44;nan
20909;BME280;10614;53.198;6.570;2024-03-29T04:53:37;99103.28;;;7.42;nan
20909;BME280;10614;53.198;6.570;2024-03-29T04:55:39;99099.63;;;7.44;nan
20909;BME280;10614;53.198;6.570;2024-03-29T04:57:39;99105.75;;;7.45;nan
20909;BME280;10614;53.198;6.570;2024-03-29T04:59:41;99116.03;;;7.48;nan
20909;BME280;10614;53.198;6.570;2024-03-29T05:01:43;99093.16;;;7.35;nan
20909;BME280;10614;53.198;6.570;2024-03-29T05:03:44;99080.16;;;7.34;nan
20909;BME280;10614;53.198;6.570;2024-03-29T05:05:47;99114.25;;;7.48;nan
20909;BME280;10614;53.198;6.570;2024-03-29T05:07:49;99098.31;;;7.53;nan
20909;BME280;10614;53.198;6.570;2024-03-29T05:09:51;99099.13;;;7.53;nan
20909;BME280;10614;53.198;6.570;2024-03-29T05:11:53;99103.34;;;7.56;nan
20909;BME280;10614;53.198;6.570;2024-03-29T05:13:55;99111.22;;;7.56;nan
20909;BME280;10614;53.198;6.570;2024-03-29T05:15:56;99108.59;;;7.56;nan
20909;BME280;10614;53.198;6.570;2024-03-29T05:17:58;99103.09;;;7.60;nan
20909;BME280;10614;53.198;6.570;2024-03-29T05:20:00;99105.72;;;7.60;nan
20909;BME280;10614;53.198;6.570;2024-03-29T05:22:03;99105.72;;;7.60;nan
20909;BME280;10614;53.198;6.570;2024-03-29T05:24:07;99098.03;;;7.57;nan
20909;BME280;10614;53.198;6.570;2024-03-29T05:26:09;99112.41;;;7.66;nan
20909;BME280;10614;53.198;6.570;2024-03-29T05:28:11;99114.00;;;7.69;nan
20909;BME280;10614;53.198;6.570;2024-03-29T05:30:13;99113.94;;;7.70;nan
20909;BME280;10614;53.198;6.570;2024-03-29T05:32:15;99120.00;;;7.71;nan
20909;BME280;10614;53.198;6.570;2024-03-29T05:34:17;99107.50;;;7.60;nan
20909;BME280;10614;53.198;6.570;2024-03-29T05:36:19;99123.28;;;7.74;nan
20909;BME280;10614;53.198;6.570;2024-03-29T05:38:21;99130.13;;;7.77;nan
20909;BME280;10614;53.198;6.570;2024-03-29T05:40:23;99121.34;;;7.78;nan
20909;BME280;10614;53.198;6.570;2024-03-29T05:42:29;99127.34;;;7.80;nan
20909;BME280;10614;53.198;6.570;2024-03-29T05:44:31;99135.97;;;7.82;nan
20909;BME280;10614;53.198;6.570;2024-03-29T05:46:33;99137.56;;;7.85;nan
20909;BME280;10614;53.198;6.570;2024-03-29T05:48:35;99137.47;;;7.86;nan
20909;BME280;10614;53.198;6.570;2024-03-29T05:50:36;99122.63;;;7.87;nan
20909;BME280;10614;53.198;6.570;2024-03-29T05:52:38;99115.28;;;7.77;nan
20909;BME280;10614;53.198;6.570;2024-03-29T05:54:38;99109.03;;;7.80;nan
20909;BME280;10614;53.198;6.570;2024-03-29T05:56:42;99131.13;;;7.90;nan
20909;BME280;10614;53.198;6.570;2024-03-29T05:58:43;99136.38;;;7.90;nan
20909;BME280;10614;53.198;6.570;2024-03-29T06:00:46;99133.75;;;7.90;nan
20909;BME280;10614;53.198;6.570;2024-03-29T06:02:48;99130.13;;;7.93;nan
20909;BME280;10614;53.198;6.570;2024-03-29T06:04:50;99138.81;;;7.93;nan
20909;BME280;10614;53.198;6.570;2024-03-29T06:06:51;99141.34;;;7.95;nan
20909;BME280;10614;53.198;6.570;2024-03-29T06:08:53;99144.94;;;7.94;nan
20909;BME280;10614;53.198;6.570;2024-03-29T06:10:56;99138.66;;;7.96;nan
20909;BME280;10614;53.198;6.570;2024-03-29T06:13:01;99136.81;;;7.98;nan
20909;BME280;10614;53.198;6.570;2024-03-29T06:15:08;99143.72;;;7.99;nan
20909;BME280;10614;53.198;6.570;2024-03-29T06:17:27;99151.25;;;8.06;nan
20909;BME280;10614;53.198;6.570;2024-03-29T06:19:27;99143.28;;;8.07;nan
20909;BME280;10614;53.198;6.570;2024-03-29T06:21:29;99153.50;;;8.12;nan
20909;BME280;10614;53.198;6.570;2024-03-29T06:23:38;99157.81;;;8.13;nan
20909;BME280;10614;53.198;6.570;2024-03-29T06:25:40;99161.22;;;8.15;nan
20909;BME280;10614;53.198;6.570;2024-03-29T06:27:42;99156.03;;;8.13;nan
20909;BME280;10614;53.198;6.570;2024-03-29T06:29:49;99156.44;;;8.21;nan
20909;BME280;10614;53.198;6.570;2024-03-29T06:31:51;99163.13;;;8.27;nan
20909;BME280;10614;53.198;6.570;2024-03-29T06:33:53;99169.78;;;8.33;nan
20909;BME280;10614;53.198;6.570;2024-03-29T06:35:55;99166.66;;;8.26;nan
20909;BME280;10614;53.198;6.570;2024-03-29T06:37:56;99167.25;;;8.31;nan
20909;BME280;10614;53.198;6.570;2024-03-29T06:39:58;99155.59;;;8.21;nan
20909;BME280;10614;53.198;6.570;2024-03-29T06:42:00;99166.13;;;8.35;nan
20909;BME280;10614;53.198;6.570;2024-03-29T06:44:02;99173.84;;;8.38;nan
20909;BME280;10614;53.198;6.570;2024-03-29T06:46:06;99172.84;;;8.41;nan
20909;BME280;10614;53.198;6.570;2024-03-29T06:48:07;99158.28;;;8.35;nan
20909;BME280;10614;53.198;6.570;2024-03-29T06:50:09;99177.91;;;8.44;nan
20909;BME280;10614;53.198;6.570;2024-03-29T06:52:11;99183.66;;;8.51;nan
20909;BME280;10614;53.198;6.570;2024-03-29T06:54:13;99192.09;;;8.56;nan
20909;BME280;10614;53.198;6.570;2024-03-29T06:56:14;99181.25;;;8.62;nan
20909;BME280;10614;53.198;6.570;2024-03-29T06:58:16;99190.59;;;8.66;nan
20909;BME280;10614;53.198;6.570;2024-03-29T07:00:18;99189.69;;;8.67;nan
20909;BME280;10614;53.198;6.570;2024-03-29T07:02:22;99196.34;;;8.73;nan
20909;BME280;10614;53.198;6.570;2024-03-29T07:04:24;99182.00;;;8.64;nan
20909;BME280;10614;53.198;6.570;2024-03-29T07:06:28;99201.31;;;8.77;nan
20909;BME280;10614;53.198;6.570;2024-03-29T07:08:30;99183.06;;;8.76;nan
20909;BME280;10614;53.198;6.570;2024-03-29T07:10:32;99206.69;;;8.90;nan
20909;BME280;10614;53.198;6.570;2024-03-29T07:12:33;99194.34;;;8.92;nan
20909;BME280;10614;53.198;6.570;2024-03-29T07:14:35;99209.91;;;8.95;nan
20909;BME280;10614;53.198;6.570;2024-03-29T07:16:38;99222.06;;;8.96;nan
20909;BME280;10614;53.198;6.570;2024-03-29T07:18:41;99203.81;;;8.95;nan
20909;BME280;10614;53.198;6.570;2024-03-29T07:20:43;99217.22;;;9.04;nan
20909;BME280;10614;53.198;6.570;2024-03-29T07:22:45;99190.84;;;8.92;nan
20909;BME280;10614;53.198;6.570;2024-03-29T07:24:48;99213.28;;;9.12;nan
20909;BME280;10614;53.198;6.570;2024-03-29T07:26:50;99219.31;;;9.14;nan
20909;BME280;10614;53.198;6.570;2024-03-29T07:28:52;99225.13;;;9.19;nan
20909;BME280;10614;53.198;6.570;2024-03-29T07:30:54;99226.50;;;9.24;nan
20909;BME280;10614;53.198;6.570;2024-03-29T07:32:56;99227.19;;;9.28;nan
20909;BME280;10614;53.198;6.570;2024-03-29T07:34:59;99213.97;;;9.29;nan
20909;BME280;10614;53.198;6.570;2024-03-29T07:37:03;99211.16;;;9.33;nan
20909;BME280;10614;53.198;6.570;2024-03-29T07:39:05;99215.28;;;9.37;nan
20909;BME280;10614;53.198;6.570;2024-03-29T07:41:07;99199.91;;;9.30;nan
20909;BME280;10614;53.198;6.570;2024-03-29T07:43:09;99221.09;;;9.42;nan
20909;BME280;10614;53.198;6.570;2024-03-29T07:45:14;99222.22;;;9.38;nan
20909;BME280;10614;53.198;6.570;2024-03-29T07:47:16;99231.31;;;9.46;nan
20909;BME280;10614;53.198;6.570;2024-03-29T07:49:18;99224.19;;;9.48;nan
20909;BME280;10614;53.198;6.570;2024-03-29T07:51:23;99209.63;;;9.43;nan
20909;BME280;10614;53.198;6.570;2024-03-29T07:53:23;99224.56;;;9.57;nan
20909;BME280;10614;53.198;6.570;2024-03-29T07:55:25;99226.16;;;9.59;nan
20909;BME280;10614;53.198;6.570;2024-03-29T07:57:27;99234.78;;;9.61;nan
20909;BME280;10614;53.198;6.570;2024-03-29T07:59:28;99236.19;;;9.67;nan
20909;BME280;10614;53.198;6.570;2024-03-29T08:01:30;99238.84;;;9.67;nan
20909;BME280;10614;53.198;6.570;2024-03-29T08:03:31;99224.34;;;9.60;nan
20909;BME280;10614;53.198;6.570;2024-03-29T08:05:34;99253.34;;;9.72;nan
20909;BME280;10614;53.198;6.570;2024-03-29T08:07:38;99264.06;;;9.69;nan
20909;BME280;10614;53.198;6.570;2024-03-29T08:09:40;99260.69;;;9.67;nan
20909;BME280;10614;53.198;6.570;2024-03-29T08:11:42;99263.75;;;9.60;nan
20909;BME280;10614;53.198;6.570;2024-03-29T08:13:44;99247.72;;;9.50;nan
20909;BME280;10614;53.198;6.570;2024-03-29T08:15:46;99260.00;;;9.64;nan
20909;BME280;10614;53.198;6.570;2024-03-29T08:17:46;99259.94;;;9.65;nan
20909;BME280;10614;53.198;6.570;2024-03-29T08:19:48;99280.84;;;9.81;nan
20909;BME280;10614;53.198;6.570;2024-03-29T08:21:50;99278.03;;;9.84;nan
20909;BME280;10614;53.198;6.570;2024-03-29T08:23:53;99275.88;;;9.77;nan
20909;BME280;10614;53.198;6.570;2024-03-29T08:25:56;99272.78;;;9.70;nan
20909;BME280;10614;53.198;6.570;2024-03-29T08:27:58;99289.94;;;9.76;nan
20909;BME280;10614;53.198;6.570;2024-03-29T08:30:00;99272.31;;;9.63;nan
20909;BME280;10614;53.198;6.570;2024-03-29T08:32:03;99294.84;;;9.67;nan
20909;BME280;10614;53.198;6.570;2024-03-29T08:34:06;99278.78;;;9.58;nan
20909;BME280;10614;53.198;6.570;2024-03-29T08:36:11;99293.34;;;9.63;nan
20909;BME280;10614;53.198;6.570;2024-03-29T08:38:13;99276.44;;;9.53;nan
20909;BME280;10614;53.198;6.570;2024-03-29T08:40:16;99257.94;;;9.55;nan
20909;BME280;10614;53.198;6.570;2024-03-29T08:42:18;99285.81;;;9.71;nan
20909;BME280;10614;53.198;6.570;2024-03-29T08:44:20;99283.94;;;9.73;nan
20909;BME280;10614;53.198;6.570;2024-03-29T08:46:22;99292.41;;;9.79;nan
20909;BME280;10614;53.198;6.570;2024-03-29T08:48:26;99299.25;;;9.81;nan
20909;BME280;10614;53.198;6.570;2024-03-29T08:50:28;99294.44;;;9.88;nan
20909;BME280;10614;53.198;6.570;2024-03-29T08:52:31;99284.78;;;9.88;nan
20909;BME280;10614;53.198;6.570;2024-03-29T08:54:31;99269.19;;;9.85;nan
20909;BME280;10614;53.198;6.570;2024-03-29T08:56:35;99279.72;;;10.00;nan
20909;BME280;10614;53.198;6.570;2024-03-29T08:58:37;99286.81;;;10.12;nan
20909;BME280;10614;53.198;6.570;2024-03-29T09:00:39;99289.91;;;10.19;nan
20909;BME280;10614;53.198;6.570;2024-03-29T09:02:41;99290.34;;;10.25;nan
20909;BME280;10614;53.198;6.570;2024-03-29T09:04:43;99282.13;;;10.31;nan
20909;BME280;10614;53.198;6.570;2024-03-29T09:06:44;99274.31;;;10.30;nan
20909;BME280;10614;53.198;6.570;2024-03-29T09:08:46;99267.72;;;10.37;nan
20909;BME280;10614;53.198;6.570;2024-03-29T09:10:48;99253.28;;;10.30;nan
20909;BME280;10614;53.198;6.570;2024-03-29T09:12:51;99268.47;;;10.39;nan
20909;BME280;10614;53.198;6.570;2024-03-29T09:14:53;99278.81;;;10.42;nan
20909;BME280;10614;53.198;6.570;2024-03-29T09:16:55;99282.53;;;10.52;nan
20909;BME280;10614;53.198;6.570;2024-03-29T09:18:57;99274.47;;;10.41;nan
20909;BME280;10614;53.198;6.570;2024-03-29T09:20:58;99292.84;;;10.55;nan
20909;BME280;10614;53.198;6.570;2024-03-29T09:23:00;99286.53;;;10.58;nan
20909;BME280;10614;53.198;6.570;2024-03-29T09:25:04;99309.06;;;10.62;nan
20909;BME280;10614;53.198;6.570;2024-03-29T09:27:04;99301.16;;;10.49;nan
20909;BME280;10614;53.198;6.570;2024-03-29T09:29:08;99302.97;;;10.62;nan
20909;BME280;10614;53.198;6.570;2024-03-29T09:31:10;99295.91;;;10.62;nan
20909;BME280;10614;53.198;6.570;2024-03-29T09:33:12;99264.19;;;10.51;nan
20909;BME280;10614;53.198;6.570;2024-03-29T09:35:14;99292.59;;;10.73;nan
20909;BME280;10614;53.198;6.570;2024-03-29T09:37:16;99276.50;;;10.77;nan
20909;BME280;10614;53.198;6.570;2024-03-29T09:39:18;99291.50;;;10.90;nan
20909;BME280;10614;53.198;6.570;2024-03-29T09:41:20;99283.38;;;10.93;nan
20909;BME280;10614;53.198;6.570;2024-03-29T09:43:22;99286.06;;;11.06;nan
20909;BME280;10614;53.198;6.570;2024-03-29T09:45:27;99278.91;;;11.08;nan
20909;BME280;10614;53.198;6.570;2024-03-29T09:47:30;99293.13;;;11.18;nan
20909;BME280;10614;53.198;6.570;2024-03-29T09:49:33;99293.13;;;11.18;nan
20909;BME280;10614;53.198;6.570;2024-03-29T09:51:36;99293.66;;;11.23;nan
20909;BME280;10614;53.198;6.570;2024-03-29T09:53:38;99281.97;;;11.27;nan
20909;BME280;10614;53.198;6.570;2024-03-29T09:55:39;99283.25;;;11.34;nan
20909;BME280;10614;53.198;6.570;2024-03-29T09:57:41;99283.16;;;11.36;nan
20909;BME280;10614;53.198;6.570;2024-03-29T09:59:43;99273.41;;;11.24;nan
20909;BME280;10614;53.198;6.570;2024-03-29T10:01:48;99298.44;;;11.31;nan
20909;BME280;10614;53.198;6.570;2024-03-29T10:03:53;99297.56;;;11.30;nan
20909;BME280;10614;53.198;6.570;2024-03-29T10:05:56;99282.28;;;11.10;nan
20909;BME280;10614;53.198;6.570;2024-03-29T10:07:58;99301.25;;;11.28;nan
20909;BME280;10614;53.198;6.570;2024-03-29T10:10:05;99281.53;;;11.08;nan
20909;BME280;10614;53.198;6.570;2024-03-29T10:12:07;99288.16;;;11.01;nan
20909;BME280;10614;53.198;6.570;2024-03-29T10:14:09;99281.50;;;10.95;nan
20909;BME280;10614;53.198;6.570;2024-03-29T10:16:10;99291.28;;;10.93;nan
20909;BME280;10614;53.198;6.570;2024-03-29T10:18:14;99314.78;;;10.96;nan
20909;BME280;10614;53.198;6.570;2024-03-29T10:20:16;99289.69;;;10.90;nan
20909;BME280;10614;53.198;6.570;2024-03-29T10:22:18;99300.91;;;11.07;nan
20909;BME280;10614;53.198;6.570;2024-03-29T10:24:20;99313.06;;;11.22;nan
20909;BME280;10614;53.198;6.570;2024-03-29T10:26:22;99302.00;;;11.17;nan
20909;BME280;10614;53.198;6.570;2024-03-29T10:28:23;99308.22;;;11.29;nan
20909;BME280;10614;53.198;6.570;2024-03-29T10:30:25;99316.44;;;11.37;nan
20909;BME280;10614;53.198;6.570;2024-03-29T10:32:26;99291.44;;;11.30;nan
20909;BME280;10614;53.198;6.570;2024-03-29T10:34:29;99332.78;;;11.55;nan
20909;BME280;10614;53.198;6.570;2024-03-29T10:36:34;99317.81;;;11.55;nan
20909;BME280;10614;53.198;6.570;2024-03-29T10:38:36;99318.03;;;11.65;nan
20909;BME280;10614;53.198;6.570;2024-03-29T10:40:38;99313.28;;;11.70;nan
20909;BME280;10614;53.198;6.570;2024-03-29T10:42:41;99300.19;;;11.81;nan
20909;BME280;10614;53.198;6.570;2024-03-29T10:44:44;99307.50;;;12.03;nan
20909;BME280;10614;53.198;6.570;2024-03-29T10:46:47;99298.47;;;12.19;nan
20909;BME280;10614;53.198;6.570;2024-03-29T10:48:50;99302.50;;;12.24;nan
20909;BME280;10614;53.198;6.570;2024-03-29T10:50:55;99302.50;;;12.24;nan
20909;BME280;10614;53.198;6.570;2024-03-29T10:53:00;99302.59;;;12.23;nan
20909;BME280;10614;53.198;6.570;2024-03-29T10:55:02;99291.72;;;12.28;nan
20909;BME280;10614;53.198;6.570;2024-03-29T10:57:06;99296.94;;;12.40;nan
20909;BME280;10614;53.198;6.570;2024-03-29T10:59:14;99299.75;;;12.50;nan
20909;BME280;10614;53.198;6.570;2024-03-29T11:01:19;99298.16;;;12.60;nan
20909;BME280;10614;53.198;6.570;2024-03-29T11:03:30;99277.78;;;12.50;nan
20909;BME280;10614;53.198;6.570;2024-03-29T11:05:35;99305.66;;;12.54;nan